Disclaimer

Please do not use the information listed here in-flight or in-navigation, as they are not provided to us by the airports but are provided by volunteers, so they might be outdated.

Search


Regions


Airport information page

No radio frequency information is available.

Airport informations:
Latitude: 27° 08' 03.19" S
Longitude: 052° 39' 23.59" W
Elevation: 2146 feet - 654 meters
Operating hours: From sunrise to sunset (SR-SS)
Operating agency: Civil government, landing fees and diplomatic clearance may be required
Timezone: UTC-3(-2DT)
Fuel: Jet A1, without icing nhibitor.

100/130 octane gasoline, leaded, MIL-L-5572F (GREEN)

Runway information:
11/29 - 8120 x 145 feet< - >2475 x 44 meters

Recent METARs:
SBCH 201900Z 18012KT 9999 SCT020 28/15 Q1016
SBCH 201900Z 18012KT 9999 SCT020 28/15 Q1016
SBCH 202000Z 17004KT 9999 FEW020 28/14 Q1016

Airport on the map: